Meteo Giornale » Osservazioni meteo Brasile » Sao Paulo Aeropor-To
ore: 17:00 - Osservazioni Meteo Sao Paulo Aeropor-To
Lat. 23° 37' S Lon. 46° 39' W Alt. 803 metri s.l.m.
20 °C
Molto Nuvoloso
Temp. 24 Ore
17 °C
24 °C
Nord-Ovest
16.7 Km/h
Dew point 18 °C
Umidità 88 %
Visibilità 10 Km
Il sole sorge alle ore 06:17
Il sole tramonta alle ore 17:56
| Data e Ora | Cielo e Fenomeni | T °C | DP °C | Um. % | Pres. hPa | Vis. km | Vento km/h | |
|---|---|---|---|---|---|---|---|---|
| Oggi h: 17:00 | Molto Nuvoloso | 20 | 18 | 88 | 1015 | 10 | NO 16.7 | |
| Oggi h: 16:00 | Pioggia | 20 | 19 | 93 | 1014 | 10 | NO 18.5 | |
| Oggi h: 15:00 | Molto Nuvoloso | 21 | 17 | 77 | 1015 | 10 | O/NO 13 | |
| Oggi h: 14:00 | Molto Nuvoloso | 21 | 17 | 77 | 1014 | 10 | O/NO 20.3 | |
| Oggi h: 13:00 | Molto Nuvoloso | 21 | 19 | 88 | 1013 | 10 | NO 13 | |
| Oggi h: 12:00 | Poco Nuvoloso | 20 | 19 | 93 | 1013 | 10 | N/NO 33.3 | |
| Oggi h: 11:00 | Pioggia | 19 | 18 | 93 | 1014 | 10 | NO 35.2 | |
| Oggi h: 10:00 | Molto Nuvoloso | 19 | 18 | 93 | 1015 | 6 | NO 29.6 | |
| Oggi h: 09:49 | Pioggia | 19 | 19 | 100 | 1014 | 6 | N/NO 37 | |
| Oggi h: 09:00 | Molto Nuvoloso | 18 | 18 | 100 | 1015 | 6 | N/NO 27.8 | |
| Oggi h: 08:00 | Pioggia Foschia | 18 | 18 | 100 | 1015 | 5 | NO 31.5 | |
| Oggi h: 07:33 | Pioggia Foschia | 19 | 18 | 93 | 1015 | 5 | N/NO 24 | |
| Oggi h: 07:00 | Sereno | 19 | 18 | 93 | 1014 | 10 | N/NO 16.7 | |
| Oggi h: 06:00 | Pioggia | 18 | 18 | 100 | 1013 | 10 | N 13 | |
| Oggi h: 05:19 | Pioggia | 18 | 0 | 29 | 1014 | 9 | N/NE 9.3 | |
| Oggi h: 05:08 | Pioggia | 18 | 0 | 29 | 1015 | 11 | N/NO 7.4 | |
| Oggi h: 05:00 | Pioggia | 18 | 0 | 29 | 1015 | 10 | N/NO 9.3 | |
| Oggi h: 04:36 | Coperto | 18 | 0 | 29 | 1015 | 10 | O 7.4 | |
| Oggi h: 04:25 | Pioggia | 18 | 0 | 29 | 1015 | 10 | O/NO 7.4 | |
| Oggi h: 04:02 | Pioggia | 18 | 0 | 29 | 1015 | 8 | N/NO 13 | |
| Oggi h: 04:00 | Pioggia | 18 | 0 | 29 | 1015 | 10 | N/NO 13 | |
| Oggi h: 03:57 | Pioggia | 18 | 0 | 29 | 1015 | 10 | N/NO 13 | |
| Oggi h: 03:54 | Pioggia | 18 | 0 | 29 | 1015 | 10 | N/NO 11.1 | |
| Oggi h: 03:27 | Coperto | 17 | 0 | 31 | 1015 | 7 | N 7.4 | |
| Oggi h: 03:21 | Coperto | 17 | 0 | 31 | 1015 | 7 | O/SO 11.1 | |
| Oggi h: 03:09 | Pioggia Temporale nelle vicinanze | 18 | 0 | 29 | 1015 | 5 | SO 20.3 | |
| Oggi h: 03:00 | Coperto | 18 | 0 | 29 | 1014 | 7 | S/SO 18.5 | |
| Oggi h: 02:49 | Coperto | 17 | 0 | 31 | 1014 | 4 | SO 22.2 | |
| Oggi h: 02:45 | Pioggia | 18 | 0 | 29 | 1016 | 4 | SO 22.2 | |
| Oggi h: 02:42 | Pioggia | 18 | 18 | 100 | 1015 | 9 | SO 24 | |
| Oggi h: 02:22 | Molto Nuvoloso | 18 | 18 | 100 | 1014 | 10 | SO 29.6 | |
| Oggi h: 02:20 | Molto Nuvoloso | 18 | 18 | 100 | 1014 | 10 | SO 31.5 | |
| Oggi h: 02:11 | Molto Nuvoloso | 19 | 19 | 100 | 1013 | 10 | S/SO 27.8 | |
| Oggi h: 02:02 | Molto Nuvoloso | 19 | 19 | 100 | 1011 | 10 | S 18.5 | |
| Oggi h: 02:00 | Pioggia | 19 | 19 | 100 | 1011 | 8 | E/NE 11.1 | |
| Oggi h: 01:01 | Temporale | 19 | 19 | 100 | 1015 | 8 | SO 14.8 | |
| Oggi h: 01:00 | Pioggia Temporale nelle vicinanze | 19 | 19 | 100 | 1014 | 10 | SO 16.7 | |
| Oggi h: 00:58 | Pioggia Temporale nelle vicinanze | 19 | 19 | 100 | 1014 | 10 | SO 16.7 | |
| Oggi h: 00:40 | Temporale | 19 | 19 | 100 | 1014 | 10 | O/SO 14.8 | |
| Oggi h: 00:22 | Coperto | 20 | 20 | 100 | 1013 | 8 | S/SO 20.3 | |
| Oggi h: 00:18 | Coperto | 20 | 20 | 100 | 1014 | 8 | SO 16.7 | |
| Oggi h: 00:00 | Coperto | 21 | 20 | 94 | 1013 | 10 | SO 18.5 | |
| Ieri h: 23:58 | Coperto | 21 | 20 | 94 | 1013 | 10 | SO 18.5 | |
| Ieri h: 23:01 | Sereno | 21 | 21 | 100 | 1012 | 8 | E/NE 7.4 | |
| Ieri h: 23:00 | Molto Nuvoloso | 20 | 20 | 100 | 1013 | 6 | E/NE 7.4 | |
| Ieri h: 22:00 | Foschia | 20 | 20 | 100 | 1013 | 4 | E 7.4 | |
| Ieri h: 21:00 | Foschia | 19 | 19 | 100 | 1013 | 5 | S 7.4 | |
| Ieri h: 20:24 | Coperto | 19 | 19 | 100 | 1014 | 8 | S 13 | |
| Ieri h: 20:00 | Foschia | 19 | 19 | 100 | 1013 | 1 | S 16.7 | |
| Ieri h: 19:00 | Molto Nuvoloso | 21 | 21 | 100 | 1013 | 10 | S 16.7 | |
| Ieri h: 18:00 | Molto Nuvoloso | 24 | 20 | 78 | 1013 | 10 | E/SE 9.3 | |



